sensor_id;sensor_type;location;lat;lon;timestamp;pressure;altitude;pressure_sealevel;temperature;humidity
80116;BME280;69423;47.608;19.366;2023-06-26T00:00:24;98863.47;;;18.20;76.49
80116;BME280;69423;47.608;19.366;2023-06-26T00:00:55;98860.78;;;18.20;76.17
80116;BME280;69423;47.608;19.366;2023-06-26T00:01:26;98866.06;;;18.15;76.35
80116;BME280;69423;47.608;19.366;2023-06-26T00:02:00;98869.00;;;18.13;77.76
80116;BME280;69423;47.608;19.366;2023-06-26T00:02:31;98868.19;;;18.13;77.51
80116;BME280;69423;47.608;19.366;2023-06-26T00:03:03;98868.53;;;18.16;77.77
80116;BME280;69423;47.608;19.366;2023-06-26T00:03:34;98871.00;;;18.18;78.12
80116;BME280;69423;47.608;19.366;2023-06-26T00:04:05;98868.88;;;18.20;78.07
80116;BME280;69423;47.608;19.366;2023-06-26T00:04:36;98869.09;;;18.18;78.21
80116;BME280;69423;47.608;19.366;2023-06-26T00:05:08;98872.66;;;18.19;77.66
80116;BME280;69423;47.608;19.366;2023-06-26T00:05:39;98872.06;;;18.17;78.37
80116;BME280;69423;47.608;19.366;2023-06-26T00:06:10;98869.38;;;18.17;77.38
80116;BME280;69423;47.608;19.366;2023-06-26T00:06:41;98869.38;;;18.17;78.23
80116;BME280;69423;47.608;19.366;2023-06-26T00:07:12;98868.53;;;18.16;78.95
80116;BME280;69423;47.608;19.366;2023-06-26T00:07:43;98866.66;;;18.17;78.80
80116;BME280;69423;47.608;19.366;2023-06-26T00:08:14;98867.47;;;18.17;78.56
80116;BME280;69423;47.608;19.366;2023-06-26T00:08:45;98866.78;;;18.22;78.11
80116;BME280;69423;47.608;19.366;2023-06-26T00:09:16;98875.44;;;18.24;78.50
80116;BME280;69423;47.608;19.366;2023-06-26T00:09:47;98865.25;;;18.26;78.53
80116;BME280;69423;47.608;19.366;2023-06-26T00:10:18;98865.81;;;18.28;78.12
80116;BME280;69423;47.608;19.366;2023-06-26T00:10:49;98862.69;;;18.31;78.16
80116;BME280;69423;47.608;19.366;2023-06-26T00:11:22;98876.19;;;18.31;77.83
80116;BME280;69423;47.608;19.366;2023-06-26T00:11:53;98870.78;;;18.31;77.02
80116;BME280;69423;47.608;19.366;2023-06-26T00:12:24;98869.94;;;18.31;76.87
80116;BME280;69423;47.608;19.366;2023-06-26T00:12:55;98872.63;;;18.31;76.37
80116;BME280;69423;47.608;19.366;2023-06-26T00:13:26;98868.66;;;18.33;76.78
80116;BME280;69423;47.608;19.366;2023-06-26T00:13:58;98865.13;;;18.33;76.15
80116;BME280;69423;47.608;19.366;2023-06-26T00:14:30;98867.59;;;18.34;76.32
80116;BME280;69423;47.608;19.366;2023-06-26T00:15:02;98878.16;;;18.36;76.51
80116;BME280;69423;47.608;19.366;2023-06-26T00:15:33;98876.84;;;18.38;76.22
80116;BME280;69423;47.608;19.366;2023-06-26T00:16:04;98869.34;;;18.40;76.11
80116;BME280;69423;47.608;19.366;2023-06-26T00:16:35;98868.53;;;18.40;75.49
80116;BME280;69423;47.608;19.366;2023-06-26T00:17:07;98882.84;;;18.40;77.12
80116;BME280;69423;47.608;19.366;2023-06-26T00:17:38;98876.16;;;18.43;77.01
80116;BME280;69423;47.608;19.366;2023-06-26T00:18:09;98873.44;;;18.43;76.90
80116;BME280;69423;47.608;19.366;2023-06-26T00:18:40;98876.38;;;18.41;76.34
80116;BME280;69423;47.608;19.366;2023-06-26T00:19:11;98870.97;;;18.41;76.80
80116;BME280;69423;47.608;19.366;2023-06-26T00:19:42;98870.97;;;18.41;76.72
80116;BME280;69423;47.608;19.366;2023-06-26T00:20:13;98869.94;;;18.43;75.78
80116;BME280;69423;47.608;19.366;2023-06-26T00:20:49;98866.16;;;18.44;76.48
80116;BME280;69423;47.608;19.366;2023-06-26T00:21:20;98874.03;;;18.45;76.07
80116;BME280;69423;47.608;19.366;2023-06-26T00:21:51;98878.38;;;18.46;76.13
80116;BME280;69423;47.608;19.366;2023-06-26T00:22:22;98875.91;;;18.45;76.28
80116;BME280;69423;47.608;19.366;2023-06-26T00:22:53;98873.22;;;18.45;76.22
80116;BME280;69423;47.608;19.366;2023-06-26T00:23:26;98876.38;;;18.41;76.27
80116;BME280;69423;47.608;19.366;2023-06-26T00:23:58;98874.25;;;18.44;76.43
80116;BME280;69423;47.608;19.366;2023-06-26T00:24:29;98873.44;;;18.43;75.92
80116;BME280;69423;47.608;19.366;2023-06-26T00:25:00;98876.38;;;18.41;76.36
80116;BME280;69423;47.608;19.366;2023-06-26T00:25:31;98871.81;;;18.42;77.04
80116;BME280;69423;47.608;19.366;2023-06-26T00:26:04;98880.50;;;18.44;77.21
80116;BME280;69423;47.608;19.366;2023-06-26T00:26:35;98871.34;;;18.45;77.47
80116;BME280;69423;47.608;19.366;2023-06-26T00:27:06;98870.03;;;18.48;77.66
80116;BME280;69423;47.608;19.366;2023-06-26T00:27:37;98873.22;;;18.45;77.00
80116;BME280;69423;47.608;19.366;2023-06-26T00:28:08;98873.22;;;18.45;77.11
80116;BME280;69423;47.608;19.366;2023-06-26T00:28:39;98866.16;;;18.44;78.10
80116;BME280;69423;47.608;19.366;2023-06-26T00:29:10;98868.88;;;18.44;78.13
80116;BME280;69423;47.608;19.366;2023-06-26T00:29:41;98876.50;;;18.47;77.53
80116;BME280;69423;47.608;19.366;2023-06-26T00:30:12;98868.19;;;18.48;77.03
80116;BME280;69423;47.608;19.366;2023-06-26T00:30:44;98869.56;;;18.51;76.31
80116;BME280;69423;47.608;19.366;2023-06-26T00:31:15;98871.19;;;18.52;76.07
80116;BME280;69423;47.608;19.366;2023-06-26T00:31:46;98871.19;;;18.52;75.74
80116;BME280;69423;47.608;19.366;2023-06-26T00:32:17;98872.84;;;18.53;76.80
80116;BME280;69423;47.608;19.366;2023-06-26T00:32:48;98868.50;;;18.52;76.99
80116;BME280;69423;47.608;19.366;2023-06-26T00:33:19;98869.66;;;18.56;77.21
80116;BME280;69423;47.608;19.366;2023-06-26T00:33:50;98868.28;;;18.53;76.42
80116;BME280;69423;47.608;19.366;2023-06-26T00:34:21;98873.22;;;18.56;76.97
80116;BME280;69423;47.608;19.366;2023-06-26T00:34:52;98874.03;;;18.57;76.70
80116;BME280;69423;47.608;19.366;2023-06-26T00:35:24;98868.63;;;18.57;77.45
80116;BME280;69423;47.608;19.366;2023-06-26T00:35:55;98869.66;;;18.56;76.21
80116;BME280;69423;47.608;19.366;2023-06-26T00:36:26;98867.47;;;18.53;77.14
80116;BME280;69423;47.608;19.366;2023-06-26T00:36:57;98865.34;;;18.55;76.86
80116;BME280;69423;47.608;19.366;2023-06-26T00:37:28;98869.56;;;18.51;77.00
80116;BME280;69423;47.608;19.366;2023-06-26T00:37:59;98874.97;;;18.51;76.75
80116;BME280;69423;47.608;19.366;2023-06-26T00:38:30;98872.03;;;18.52;76.37
80116;BME280;69423;47.608;19.366;2023-06-26T00:39:01;98876.59;;;18.52;76.07
80116;BME280;69423;47.608;19.366;2023-06-26T00:39:34;98870.63;;;18.50;76.73
80116;BME280;69423;47.608;19.366;2023-06-26T00:40:05;98866.28;;;18.49;77.38
80116;BME280;69423;47.608;19.366;2023-06-26T00:40:36;98874.16;;;18.50;75.57
80116;BME280;69423;47.608;19.366;2023-06-26T00:41:07;98871.69;;;18.49;75.88
80116;BME280;69423;47.608;19.366;2023-06-26T00:41:43;98870.53;;;18.45;76.22
80116;BME280;69423;47.608;19.366;2023-06-26T00:42:14;98868.88;;;18.44;76.81
80116;BME280;69423;47.608;19.366;2023-06-26T00:42:45;98872.28;;;18.39;76.85
80116;BME280;69423;47.608;19.366;2023-06-26T00:43:16;98873.09;;;18.39;76.31
80116;BME280;69423;47.608;19.366;2023-06-26T00:43:47;98874.25;;;18.44;75.86
80116;BME280;69423;47.608;19.366;2023-06-26T00:44:18;98869.56;;;18.51;74.83
80116;BME280;69423;47.608;19.366;2023-06-26T00:44:49;98870.38;;;18.51;72.40
80116;BME280;69423;47.608;19.366;2023-06-26T00:45:20;98865.00;;;18.51;72.10
80116;BME280;69423;47.608;19.366;2023-06-26T00:45:51;98866.88;;;18.51;72.87
80116;BME280;69423;47.608;19.366;2023-06-26T00:46:22;98866.66;;;18.52;73.42
80116;BME280;69423;47.608;19.366;2023-06-26T00:46:54;98875.34;;;18.54;73.65
80116;BME280;69423;47.608;19.366;2023-06-26T00:47:26;98875.78;;;18.51;75.32
80116;BME280;69423;47.608;19.366;2023-06-26T00:47:58;98874.97;;;18.51;76.02
80116;BME280;69423;47.608;19.366;2023-06-26T00:48:29;98874.97;;;18.51;76.02
80116;BME280;69423;47.608;19.366;2023-06-26T00:49:02;98879.19;;;18.47;77.17
80116;BME280;69423;47.608;19.366;2023-06-26T00:49:34;98878.13;;;18.48;77.15
80116;BME280;69423;47.608;19.366;2023-06-26T00:50:06;98871.34;;;18.45;77.52
80116;BME280;69423;47.608;19.366;2023-06-26T00:50:37;98872.16;;;18.46;76.86
80116;BME280;69423;47.608;19.366;2023-06-26T00:51:08;98872.72;;;18.48;77.19
80116;BME280;69423;47.608;19.366;2023-06-26T00:51:40;98873.31;;;18.50;76.89
80116;BME280;69423;47.608;19.366;2023-06-26T00:52:12;98873.69;;;18.41;77.30
80116;BME280;69423;47.608;19.366;2023-06-26T00:52:43;98870.06;;;18.36;77.83
80116;BME280;69423;47.608;19.366;2023-06-26T00:53:15;98875.69;;;18.34;78.17
80116;BME280;69423;47.608;19.366;2023-06-26T00:53:47;98875.91;;;18.33;77.25
80116;BME280;69423;47.608;19.366;2023-06-26T00:54:19;98872.41;;;18.32;78.07
80116;BME280;69423;47.608;19.366;2023-06-26T00:54:52;98874.66;;;18.35;77.42
80116;BME280;69423;47.608;19.366;2023-06-26T00:55:24;98871.09;;;18.35;76.51
80116;BME280;69423;47.608;19.366;2023-06-26T00:55:55;98873.00;;;18.34;75.86
80116;BME280;69423;47.608;19.366;2023-06-26T00:56:27;98859.03;;;18.37;76.13
80116;BME280;69423;47.608;19.366;2023-06-26T00:56:59;98872.03;;;18.40;75.76
80116;BME280;69423;47.608;19.366;2023-06-26T00:57:31;98875.56;;;18.41;76.75
80116;BME280;69423;47.608;19.366;2023-06-26T00:58:02;98864.53;;;18.43;76.39
80116;BME280;69423;47.608;19.366;2023-06-26T00:58:33;98868.88;;;18.44;75.83
80116;BME280;69423;47.608;19.366;2023-06-26T00:59:04;98874.75;;;18.40;75.82
80116;BME280;69423;47.608;19.366;2023-06-26T00:59:35;98866.88;;;18.39;77.09
80116;BME280;69423;47.608;19.366;2023-06-26T01:00:07;98862.53;;;18.38;77.02
80116;BME280;69423;47.608;19.366;2023-06-26T01:00:39;98870.38;;;18.39;77.13
80116;BME280;69423;47.608;19.366;2023-06-26T01:01:10;98865.69;;;18.35;77.39
80116;BME280;69423;47.608;19.366;2023-06-26T01:01:46;98864.31;;;18.32;77.56
80116;BME280;69423;47.608;19.366;2023-06-26T01:02:18;98868.06;;;18.31;77.58
80116;BME280;69423;47.608;19.366;2023-06-26T01:02:50;98865.97;;;18.33;78.01
80116;BME280;69423;47.608;19.366;2023-06-26T01:03:25;98858.31;;;18.30;77.16
80116;BME280;69423;47.608;19.366;2023-06-26T01:03:56;98861.50;;;18.27;77.28
80116;BME280;69423;47.608;19.366;2023-06-26T01:04:27;98868.53;;;18.28;77.17
80116;BME280;69423;47.608;19.366;2023-06-26T01:05:03;98858.31;;;18.30;77.44
80116;BME280;69423;47.608;19.366;2023-06-26T01:05:37;98861.50;;;18.27;78.08
80116;BME280;69423;47.608;19.366;2023-06-26T01:06:11;98862.44;;;18.21;77.99
80116;BME280;69423;47.608;19.366;2023-06-26T01:06:46;98860.91;;;18.25;77.85
80116;BME280;69423;47.608;19.366;2023-06-26T01:07:22;98860.91;;;18.25;77.09
80116;BME280;69423;47.608;19.366;2023-06-26T01:07:54;98858.81;;;18.27;77.26
80116;BME280;69423;47.608;19.366;2023-06-26T01:08:27;98860.91;;;18.25;78.01
80116;BME280;69423;47.608;19.366;2023-06-26T01:08:59;98862.09;;;18.29;77.80
80116;BME280;69423;47.608;19.366;2023-06-26T01:09:31;98861.59;;;18.32;77.45
80116;BME280;69423;47.608;19.366;2023-06-26T01:10:06;98868.88;;;18.32;77.78
80116;BME280;69423;47.608;19.366;2023-06-26T01:10:37;98859.97;;;18.31;76.82
80116;BME280;69423;47.608;19.366;2023-06-26T01:11:08;98859.72;;;18.33;78.17
80116;BME280;69423;47.608;19.366;2023-06-26T01:11:40;98852.47;;;18.33;78.52
80116;BME280;69423;47.608;19.366;2023-06-26T01:12:11;98861.38;;;18.34;78.23
80116;BME280;69423;47.608;19.366;2023-06-26T01:12:43;98856.78;;;18.34;77.77
80116;BME280;69423;47.608;19.366;2023-06-26T01:13:15;98857.88;;;18.33;77.26
80116;BME280;69423;47.608;19.366;2023-06-26T01:13:46;98862.91;;;18.30;77.90
80116;BME280;69423;47.608;19.366;2023-06-26T01:14:18;98859.38;;;18.29;77.67
80116;BME280;69423;47.608;19.366;2023-06-26T01:14:49;98863.72;;;18.30;78.00
80116;BME280;69423;47.608;19.366;2023-06-26T01:15:20;98862.53;;;18.26;77.95
80116;BME280;69423;47.608;19.366;2023-06-26T01:15:51;98858.44;;;18.24;77.83
80116;BME280;69423;47.608;19.366;2023-06-26T01:16:24;98852.47;;;18.22;77.78
80116;BME280;69423;47.608;19.366;2023-06-26T01:16:56;98862.66;;;18.19;77.83
80116;BME280;69423;47.608;19.366;2023-06-26T01:17:28;98864.56;;;18.19;78.15
80116;BME280;69423;47.608;19.366;2023-06-26T01:18:04;98863.97;;;18.17;78.08
80116;BME280;69423;47.608;19.366;2023-06-26T01:18:37;98864.56;;;18.19;78.30
80116;BME280;69423;47.608;19.366;2023-06-26T01:19:19;98854.81;;;18.18;77.93
80116;BME280;69423;47.608;19.366;2023-06-26T01:19:57;98860.78;;;18.20;78.52
80116;BME280;69423;47.608;19.366;2023-06-26T01:20:31;98861.97;;;18.24;77.83
80116;BME280;69423;47.608;19.366;2023-06-26T01:21:03;98861.72;;;18.26;78.30
80116;BME280;69423;47.608;19.366;2023-06-26T01:21:40;98859.97;;;18.31;78.27
80116;BME280;69423;47.608;19.366;2023-06-26T01:22:36;98861.16;;;18.35;79.03
80116;BME280;69423;47.608;19.366;2023-06-26T01:24:19;98862.41;;;18.33;78.50
80116;BME280;69423;47.608;19.366;2023-06-26T01:26:22;98857.88;;;18.33;79.21
80116;BME280;69423;47.608;19.366;2023-06-26T01:26:54;98855.38;;;18.32;78.31
80116;BME280;69423;47.608;19.366;2023-06-26T01:27:26;98848.09;;;18.32;78.21
80116;BME280;69423;47.608;19.366;2023-06-26T01:27:58;98852.91;;;18.30;77.60
80116;BME280;69423;47.608;19.366;2023-06-26T01:28:31;98845.19;;;18.34;77.91
80116;BME280;69423;47.608;19.366;2023-06-26T01:29:06;98853.88;;;18.36;78.27
80116;BME280;69423;47.608;19.366;2023-06-26T01:29:39;98854.09;;;18.34;79.15
80116;BME280;69423;47.608;19.366;2023-06-26T01:30:12;98850.34;;;18.35;78.97
80116;BME280;69423;47.608;19.366;2023-06-26T01:30:44;98847.06;;;18.33;78.73
80116;BME280;69423;47.608;19.366;2023-06-26T01:31:16;98857.03;;;18.33;79.20
80116;BME280;69423;47.608;19.366;2023-06-26T01:31:49;98855.38;;;18.32;79.42
80116;BME280;69423;47.608;19.366;2023-06-26T01:32:21;98851.63;;;18.33;78.78
80116;BME280;69423;47.608;19.366;2023-06-26T01:32:53;98854.44;;;18.26;78.84
80116;BME280;69423;47.608;19.366;2023-06-26T01:33:24;98856.56;;;18.24;78.56
80116;BME280;69423;47.608;19.366;2023-06-26T01:33:57;98850.13;;;18.25;78.55
80116;BME280;69423;47.608;19.366;2023-06-26T01:34:29;98851.75;;;18.26;78.58
80116;BME280;69423;47.608;19.366;2023-06-26T01:35:02;98855.03;;;18.28;79.52
80116;BME280;69423;47.608;19.366;2023-06-26T01:35:33;98849.63;;;18.28;78.38
80116;BME280;69423;47.608;19.366;2023-06-26T01:36:04;98853.41;;;18.27;78.58
80116;BME280;69423;47.608;19.366;2023-06-26T01:36:36;98853.63;;;18.26;78.71
80116;BME280;69423;47.608;19.366;2023-06-26T01:37:08;98850.13;;;18.25;78.70
80116;BME280;69423;47.608;19.366;2023-06-26T01:37:39;98848.22;;;18.26;79.04
80116;BME280;69423;47.608;19.366;2023-06-26T01:38:13;98849.63;;;18.28;79.33
80116;BME280;69423;47.608;19.366;2023-06-26T01:38:44;98844.38;;;18.33;79.16
80116;BME280;69423;47.608;19.366;2023-06-26T01:39:18;98844.94;;;18.35;78.84
80116;BME280;69423;47.608;19.366;2023-06-26T01:39:49;98845.28;;;18.39;79.19
80116;BME280;69423;47.608;19.366;2023-06-26T01:40:20;98846.09;;;18.39;79.09
80116;BME280;69423;47.608;19.366;2023-06-26T01:40:51;98839.88;;;18.39;78.54
80116;BME280;69423;47.608;19.366;2023-06-26T01:41:22;98839.06;;;18.38;79.03
80116;BME280;69423;47.608;19.366;2023-06-26T01:41:53;98846.09;;;18.39;78.69
80116;BME280;69423;47.608;19.366;2023-06-26T01:42:25;98841.53;;;18.40;79.10
80116;BME280;69423;47.608;19.366;2023-06-26T01:42:57;98837.44;;;18.37;79.24
80116;BME280;69423;47.608;19.366;2023-06-26T01:44:23;98845.53;;;18.37;78.25
80116;BME280;69423;47.608;19.366;2023-06-26T01:44:45;98839.88;;;18.39;78.02
80116;BME280;69423;47.608;19.366;2023-06-26T01:45:24;98843.41;;;18.39;78.03
80116;BME280;69423;47.608;19.366;2023-06-26T01:46:11;98843.16;;;18.41;78.61
80116;BME280;69423;47.608;19.366;2023-06-26T01:47:02;98840.69;;;18.39;79.01
80116;BME280;69423;47.608;19.366;2023-06-26T01:47:37;98838.59;;;18.41;78.20
80116;BME280;69423;47.608;19.366;2023-06-26T01:48:12;98838.94;;;18.45;78.10
80116;BME280;69423;47.608;19.366;2023-06-26T01:49:06;98835.28;;;18.51;77.89
80116;BME280;69423;47.608;19.366;2023-06-26T01:49:56;98839.97;;;18.56;77.77
80116;BME280;69423;47.608;19.366;2023-06-26T01:50:31;98835.16;;;18.58;78.30
80116;BME280;69423;47.608;19.366;2023-06-26T01:51:06;98838.56;;;18.53;78.63
80116;BME280;69423;47.608;19.366;2023-06-26T01:51:43;98847.25;;;18.55;78.86
80116;BME280;69423;47.608;19.366;2023-06-26T01:52:37;98842.22;;;18.59;78.80
80116;BME280;69423;47.608;19.366;2023-06-26T01:53:14;98835.16;;;18.58;78.32
80116;BME280;69423;47.608;19.366;2023-06-26T01:53:53;98835.72;;;18.60;78.47
80116;BME280;69423;47.608;19.366;2023-06-26T01:54:30;98835.72;;;18.60;78.69
80116;BME280;69423;47.608;19.366;2023-06-26T01:55:51;98834.91;;;18.59;78.50
80116;BME280;69423;47.608;19.366;2023-06-26T01:56:24;98837.03;;;18.57;77.48
80116;BME280;69423;47.608;19.366;2023-06-26T01:56:57;98830.81;;;18.57;76.91
80116;BME280;69423;47.608;19.366;2023-06-26T01:57:30;98830.81;;;18.57;77.78
80116;BME280;69423;47.608;19.366;2023-06-26T01:58:02;98834.34;;;18.57;78.50
80116;BME280;69423;47.608;19.366;2023-06-26T01:58:35;98832.72;;;18.56;77.44
80116;BME280;69423;47.608;19.366;2023-06-26T01:59:09;98836.09;;;18.52;77.32
80116;BME280;69423;47.608;19.366;2023-06-26T01:59:42;98839.88;;;18.51;77.17
80116;BME280;69423;47.608;19.366;2023-06-26T02:00:19;98847.97;;;18.51;77.76
80116;BME280;69423;47.608;19.366;2023-06-26T02:00:52;98845.16;;;18.46;77.57
80116;BME280;69423;47.608;19.366;2023-06-26T02:01:24;98844.34;;;18.45;77.41
80116;BME280;69423;47.608;19.366;2023-06-26T02:01:55;98837.19;;;18.39;77.48
80116;BME280;69423;47.608;19.366;2023-06-26T02:02:28;98845.63;;;18.31;78.12
80116;BME280;69423;47.608;19.366;2023-06-26T02:03:00;98840.50;;;18.29;79.14
80116;BME280;69423;47.608;19.366;2023-06-26T02:03:31;98839.19;;;18.32;79.14
80116;BME280;69423;47.608;19.366;2023-06-26T02:04:02;98847.28;;;18.32;78.60
80116;BME280;69423;47.608;19.366;2023-06-26T02:04:33;98841.66;;;18.33;78.90
80116;BME280;69423;47.608;19.366;2023-06-26T02:05:04;98843.78;;;18.31;78.87
80116;BME280;69423;47.608;19.366;2023-06-26T02:05:35;98843.28;;;18.34;78.65
80116;BME280;69423;47.608;19.366;2023-06-26T02:06:06;98843.28;;;18.34;78.20
80116;BME280;69423;47.608;19.366;2023-06-26T02:06:37;98837.53;;;18.31;78.58
80116;BME280;69423;47.608;19.366;2023-06-26T02:07:08;98841.19;;;18.25;78.74
80116;BME280;69423;47.608;19.366;2023-06-26T02:07:40;98846.00;;;18.23;79.18
80116;BME280;69423;47.608;19.366;2023-06-26T02:08:14;98843.06;;;18.24;79.41
80116;BME280;69423;47.608;19.366;2023-06-26T02:08:45;98847.28;;;18.20;79.39
80116;BME280;69423;47.608;19.366;2023-06-26T02:09:16;98842.97;;;18.19;79.43
80116;BME280;69423;47.608;19.366;2023-06-26T02:09:48;98843.56;;;18.21;79.46
80116;BME280;69423;47.608;19.366;2023-06-26T02:10:19;98839.41;;;18.18;79.87
80116;BME280;69423;47.608;19.366;2023-06-26T02:10:50;98847.06;;;18.22;80.27
80116;BME280;69423;47.608;19.366;2023-06-26T02:11:21;98841.91;;;18.20;79.61
80116;BME280;69423;47.608;19.366;2023-06-26T02:11:52;98845.31;;;18.15;79.65
80116;BME280;69423;47.608;19.366;2023-06-26T02:12:23;98848.00;;;18.15;79.38
80116;BME280;69423;47.608;19.366;2023-06-26T02:12:54;98844.94;;;18.12;79.90
80116;BME280;69423;47.608;19.366;2023-06-26T02:13:25;98840.94;;;18.14;79.91
80116;BME280;69423;47.608;19.366;2023-06-26T02:13:56;98836.13;;;18.16;79.49
80116;BME280;69423;47.608;19.366;2023-06-26T02:14:27;98850.94;;;18.14;80.77
80116;BME280;69423;47.608;19.366;2023-06-26T02:14:58;98851.16;;;18.12;79.99
80116;BME280;69423;47.608;19.366;2023-06-26T02:15:29;98840.72;;;18.16;79.94
80116;BME280;69423;47.608;19.366;2023-06-26T02:16:00;98844.22;;;18.16;79.77
80116;BME280;69423;47.608;19.366;2023-06-26T02:16:31;98840.25;;;18.19;79.88
80116;BME280;69423;47.608;19.366;2023-06-26T02:17:04;98842.38;;;18.17;80.20
80116;BME280;69423;47.608;19.366;2023-06-26T02:17:35;98842.38;;;18.17;80.10
80116;BME280;69423;47.608;19.366;2023-06-26T02:18:06;98836.63;;;18.13;80.00
80116;BME280;69423;47.608;19.366;2023-06-26T02:18:37;98847.78;;;18.17;80.60
80116;BME280;69423;47.608;19.366;2023-06-26T02:19:08;98842.38;;;18.17;80.90
80116;BME280;69423;47.608;19.366;2023-06-26T02:19:39;98844.50;;;18.15;80.73
80116;BME280;69423;47.608;19.366;2023-06-26T02:20:18;98839.69;;;18.17;80.62
80116;BME280;69423;47.608;19.366;2023-06-26T02:20:49;98835.69;;;18.19;79.77
80116;BME280;69423;47.608;19.366;2023-06-26T02:21:20;98844.38;;;18.22;79.79
80116;BME280;69423;47.608;19.366;2023-06-26T02:21:51;98836.03;;;18.23;79.72
80116;BME280;69423;47.608;19.366;2023-06-26T02:22:22;98834.38;;;18.22;79.51
80116;BME280;69423;47.608;19.366;2023-06-26T02:22:53;98846.00;;;18.23;79.74
80116;BME280;69423;47.608;19.366;2023-06-26T02:23:24;98841.19;;;18.25;79.25
80116;BME280;69423;47.608;19.366;2023-06-26T02:23:55;98843.44;;;18.28;79.69
80116;BME280;69423;47.608;19.366;2023-06-26T02:24:26;98836.13;;;18.28;79.06
80116;BME280;69423;47.608;19.366;2023-06-26T02:25:00;98842.94;;;18.31;78.62
80116;BME280;69423;47.608;19.366;2023-06-26T02:25:31;98842.47;;;18.34;77.91
80116;BME280;69423;47.608;19.366;2023-06-26T02:26:02;98844.81;;;18.30;77.61
80116;BME280;69423;47.608;19.366;2023-06-26T02:26:33;98847.75;;;18.29;77.76
80116;BME280;69423;47.608;19.366;2023-06-26T02:27:04;98841.44;;;18.23;77.96
80116;BME280;69423;47.608;19.366;2023-06-26T02:27:35;98844.72;;;18.25;78.46
80116;BME280;69423;47.608;19.366;2023-06-26T02:28:06;98842.63;;;18.27;77.88
80116;BME280;69423;47.608;19.366;2023-06-26T02:28:37;98836.63;;;18.25;77.56
80116;BME280;69423;47.608;19.366;2023-06-26T02:29:08;98843.88;;;18.25;78.19
80116;BME280;69423;47.608;19.366;2023-06-26T02:29:41;98840.50;;;18.29;78.40
80116;BME280;69423;47.608;19.366;2023-06-26T02:30:12;98841.66;;;18.33;78.59
80116;BME280;69423;47.608;19.366;2023-06-26T02:30:43;98842.47;;;18.34;78.72
80116;BME280;69423;47.608;19.366;2023-06-26T02:31:14;98838.47;;;18.36;78.48
80116;BME280;69423;47.608;19.366;2023-06-26T02:31:45;98844.94;;;18.35;78.44
80116;BME280;69423;47.608;19.366;2023-06-26T02:32:16;98841.66;;;18.33;78.20
80116;BME280;69423;47.608;19.366;2023-06-26T02:32:47;98840.00;;;18.32;78.17
80116;BME280;69423;47.608;19.366;2023-06-26T02:33:18;98847.88;;;18.34;78.83
80116;BME280;69423;47.608;19.366;2023-06-26T02:33:49;98848.25;;;18.37;78.73
80116;BME280;69423;47.608;19.366;2023-06-26T02:34:20;98848.25;;;18.37;78.37
80116;BME280;69423;47.608;19.366;2023-06-26T02:34:51;98847.16;;;18.38;78.21
80116;BME280;69423;47.608;19.366;2023-06-26T02:35:22;98846.56;;;18.36;77.95
80116;BME280;69423;47.608;19.366;2023-06-26T02:35:53;98853.16;;;18.40;77.14
80116;BME280;69423;47.608;19.366;2023-06-26T02:36:24;98849.88;;;18.38;77.75
80116;BME280;69423;47.608;19.366;2023-06-26T02:36:56;98852.34;;;18.40;77.08
80116;BME280;69423;47.608;19.366;2023-06-26T02:37:27;98851.03;;;18.43;77.61
80116;BME280;69423;47.608;19.366;2023-06-26T02:37:58;98853.16;;;18.40;78.32
80116;BME280;69423;47.608;19.366;2023-06-26T02:38:29;98848.25;;;18.37;78.47
80116;BME280;69423;47.608;19.366;2023-06-26T02:39:00;98846.56;;;18.36;77.91
80116;BME280;69423;47.608;19.366;2023-06-26T02:39:31;98843.66;;;18.38;78.69
80116;BME280;69423;47.608;19.366;2023-06-26T02:40:02;98851.75;;;18.38;78.92
80116;BME280;69423;47.608;19.366;2023-06-26T02:40:34;98835.78;;;18.36;78.17
80116;BME280;69423;47.608;19.366;2023-06-26T02:41:05;98840.81;;;18.33;78.60
80116;BME280;69423;47.608;19.366;2023-06-26T02:41:36;98851.16;;;18.36;78.41
80116;BME280;69423;47.608;19.366;2023-06-26T02:42:07;98846.22;;;18.33;78.06
80116;BME280;69423;47.608;19.366;2023-06-26T02:42:38;98844.94;;;18.35;79.48
80116;BME280;69423;47.608;19.366;2023-06-26T02:43:09;98842.84;;;18.37;78.45
80116;BME280;69423;47.608;19.366;2023-06-26T02:43:40;98844.94;;;18.35;78.40
80116;BME280;69423;47.608;19.366;2023-06-26T02:44:11;98843.88;;;18.36;78.18
80116;BME280;69423;47.608;19.366;2023-06-26T02:44:43;98846.56;;;18.36;78.00
80116;BME280;69423;47.608;19.366;2023-06-26T02:45:14;98842.84;;;18.37;78.23
80116;BME280;69423;47.608;19.366;2023-06-26T02:45:45;98844.69;;;18.37;78.81
80116;BME280;69423;47.608;19.366;2023-06-26T02:46:16;98842.84;;;18.37;79.31
80116;BME280;69423;47.608;19.366;2023-06-26T02:46:47;98845.78;;;18.36;78.95
80116;BME280;69423;47.608;19.366;2023-06-26T02:47:18;98849.19;;;18.31;78.58
80116;BME280;69423;47.608;19.366;2023-06-26T02:47:49;98841.09;;;18.31;79.26
80116;BME280;69423;47.608;19.366;2023-06-26T02:48:20;98850.22;;;18.30;79.17
80116;BME280;69423;47.608;19.366;2023-06-26T02:48:51;98848.69;;;18.34;79.35
80116;BME280;69423;47.608;19.366;2023-06-26T02:49:22;98840.38;;;18.36;78.95
80116;BME280;69423;47.608;19.366;2023-06-26T02:49:53;98847.53;;;18.30;78.43
80116;BME280;69423;47.608;19.366;2023-06-26T02:50:24;98840.50;;;18.29;78.51
80116;BME280;69423;47.608;19.366;2023-06-26T02:50:55;98848.59;;;18.29;78.87
80116;BME280;69423;47.608;19.366;2023-06-26T02:51:26;98848.34;;;18.31;79.29
80116;BME280;69423;47.608;19.366;2023-06-26T02:51:57;98849.19;;;18.31;79.45
80116;BME280;69423;47.608;19.366;2023-06-26T02:52:28;98847.06;;;18.33;79.08
80116;BME280;69423;47.608;19.366;2023-06-26T02:53:00;98841.41;;;18.35;79.38